createdAt,value
2018-05-06T05:51:06.927Z,2.73
2018-05-06T05:53:34.391Z,2.80
2018-05-06T05:56:01.820Z,3.50
2018-05-06T05:58:30.047Z,2.80
2018-05-06T06:00:57.481Z,3.60
2018-05-06T06:03:25.703Z,3.53
2018-05-06T06:05:53.166Z,2.90
2018-05-06T06:08:20.619Z,3.00
2018-05-06T06:10:48.869Z,2.80
2018-05-06T06:13:17.358Z,2.80
2018-05-06T06:15:44.848Z,3.00
2018-05-06T06:18:12.368Z,2.97
2018-05-06T06:20:40.580Z,2.97
2018-05-06T06:23:08.038Z,3.00
2018-05-06T06:25:36.387Z,3.50
2018-05-06T06:28:03.857Z,3.00
2018-05-06T06:30:31.311Z,3.40
2018-05-06T06:32:58.913Z,2.73
2018-05-06T06:35:26.375Z,2.80
2018-05-06T06:37:53.816Z,3.27
2018-05-06T06:40:21.338Z,3.23
2018-05-06T06:42:48.794Z,3.33
2018-05-06T06:45:16.265Z,3.40
2018-05-06T06:47:43.754Z,2.90
2018-05-06T06:50:11.257Z,2.53
2018-05-06T06:52:39.545Z,3.30
2018-05-06T06:55:07.009Z,3.70
2018-05-06T06:57:35.283Z,3.40
2018-05-06T07:00:02.747Z,3.43
2018-05-06T07:02:30.200Z,2.60
2018-05-06T07:04:57.772Z,2.90
2018-05-06T07:07:26.027Z,3.10
2018-05-06T07:09:53.563Z,2.83
2018-05-06T07:12:21.047Z,3.33
2018-05-06T07:14:48.512Z,2.90
2018-05-06T07:17:16.013Z,2.93
2018-05-06T07:19:43.471Z,2.47
2018-05-06T07:22:11.729Z,3.00
2018-05-06T07:24:39.173Z,3.00
2018-05-06T07:27:06.669Z,2.93
2018-05-06T07:29:34.143Z,2.80
2018-05-06T07:32:01.622Z,2.60
2018-05-06T07:34:29.849Z,2.87
2018-05-06T07:36:57.314Z,2.70
2018-05-06T07:39:24.761Z,3.30
2018-05-06T07:41:53.002Z,2.83
2018-05-06T07:44:20.477Z,3.43
2018-05-06T07:46:47.931Z,2.97
2018-05-06T07:49:15.385Z,2.80
2018-05-06T07:51:42.885Z,2.90
2018-05-06T07:54:10.364Z,3.20
2018-05-06T07:56:37.811Z,2.83
2018-05-06T07:59:06.069Z,2.63
2018-05-06T08:01:33.559Z,2.90
2018-05-06T08:04:01.058Z,2.63
2018-05-06T08:06:29.182Z,2.90
2018-05-06T08:09:01.025Z,2.90
2018-05-06T08:11:28.573Z,3.53
2018-05-06T08:13:56.283Z,2.90
2018-05-06T08:18:58.451Z,2.60
2018-05-06T08:21:27.045Z,3.60
2018-05-06T08:23:54.531Z,2.73
2018-05-06T08:26:22.071Z,2.73
2018-05-06T08:28:50.337Z,3.17
2018-05-06T08:31:17.871Z,3.17
2018-05-06T08:33:45.405Z,3.60
2018-05-06T08:36:12.899Z,2.70
2018-05-06T08:38:40.400Z,2.70
2018-05-06T08:41:07.853Z,3.17
2018-05-06T08:43:35.363Z,3.23
2018-05-06T08:46:02.855Z,2.90
2018-05-06T08:48:34.316Z,3.23
2018-05-06T08:51:01.801Z,3.20
2018-05-06T08:53:29.257Z,2.53
2018-05-06T08:55:56.714Z,3.10
2018-05-06T08:58:24.155Z,2.87
2018-05-06T09:00:52.247Z,3.07
2018-05-06T09:03:20.488Z,2.73
2018-05-06T09:05:47.967Z,2.73
2018-05-06T09:08:15.427Z,2.70
2018-05-06T09:10:42.935Z,3.03
2018-05-06T09:13:10.386Z,3.13
2018-05-06T09:15:38.083Z,3.10
2018-05-06T09:18:05.520Z,3.43
2018-05-06T09:20:33.646Z,3.97
2018-05-06T09:23:01.094Z,4.67
2018-05-06T09:25:31.926Z,3.17
2018-05-06T09:27:59.328Z,3.00
2018-05-06T09:30:26.790Z,2.77
2018-05-06T09:32:54.303Z,2.77
2018-05-06T09:35:21.753Z,2.73
2018-05-06T09:37:49.206Z,2.90
2018-05-06T09:40:16.661Z,2.50
2018-05-06T09:42:44.116Z,2.40
2018-05-06T09:45:11.584Z,2.93
2018-05-06T09:47:40.287Z,2.73
2018-05-06T09:50:07.746Z,2.60
2018-05-06T09:52:35.237Z,2.50
2018-05-06T09:55:02.702Z,2.70
2018-05-06T09:57:30.187Z,2.57
2018-05-06T09:59:58.428Z,2.90
2018-05-06T10:02:25.900Z,3.10
2018-05-06T10:04:53.520Z,2.83
2018-05-06T10:07:24.288Z,4.20
2018-05-06T10:09:52.519Z,3.27
2018-05-06T10:12:19.998Z,2.57
2018-05-06T10:14:47.465Z,2.03
2018-05-06T10:17:15.038Z,2.73
2018-05-06T10:19:42.495Z,2.87
2018-05-06T10:22:10.757Z,2.77
2018-05-06T10:24:38.378Z,2.77
2018-05-06T10:27:05.863Z,2.43
2018-05-06T10:29:33.339Z,2.67
2018-05-06T10:32:00.793Z,3.50
2018-05-06T10:34:29.066Z,2.53
2018-05-06T10:36:56.509Z,2.50
2018-05-06T10:39:24.006Z,3.33
2018-05-06T10:41:51.464Z,3.17
2018-05-06T10:44:18.965Z,2.30
2018-05-06T10:46:46.382Z,2.30
2018-05-06T10:49:13.917Z,2.20
2018-05-06T10:51:41.730Z,3.00
2018-05-06T10:54:09.944Z,2.90
2018-05-06T10:59:10.078Z,2.23
2018-05-06T11:01:38.334Z,2.50
2018-05-06T11:04:05.888Z,3.20
2018-05-06T11:06:33.295Z,1.90
2018-05-06T11:09:00.752Z,2.30
2018-05-06T11:11:29.236Z,2.90
2018-05-06T11:13:56.721Z,2.23
2018-05-06T11:16:24.198Z,2.10
2018-05-06T11:18:51.668Z,2.10
2018-05-06T11:21:19.171Z,2.50
2018-05-06T11:23:46.652Z,2.10
2018-05-06T11:26:14.192Z,2.20
2018-05-06T11:28:41.587Z,3.50
2018-05-06T11:31:09.085Z,2.83
2018-05-06T11:33:36.606Z,2.17
2018-05-06T11:36:04.798Z,2.53
2018-05-06T11:38:32.231Z,1.80
2018-05-06T11:41:00.716Z,3.07
2018-05-06T11:43:28.143Z,2.60
2018-05-06T11:45:55.627Z,2.60
2018-05-06T11:48:23.113Z,2.63
2018-05-06T11:50:50.579Z,3.30
2018-05-06T11:53:18.162Z,1.87
2018-05-06T11:55:46.236Z,2.20
2018-05-06T11:58:13.746Z,2.73
2018-05-06T12:00:41.203Z,2.37
2018-05-06T12:03:08.669Z,3.10
2018-05-06T12:05:36.128Z,2.23
2018-05-06T12:08:03.613Z,2.57
2018-05-06T12:10:31.080Z,2.47
2018-05-06T12:15:33.224Z,2.37
2018-05-06T12:18:00.705Z,2.13
2018-05-06T12:20:28.202Z,2.37
2018-05-06T12:22:55.696Z,2.50
2018-05-06T12:25:23.193Z,2.00
2018-05-06T12:27:51.543Z,1.70
2018-05-06T12:30:19.004Z,1.80
2018-05-06T12:32:46.445Z,1.70
2018-05-06T12:35:13.910Z,1.63
2018-05-06T12:37:41.403Z,1.97
2018-05-06T12:40:09.023Z,2.20
2018-05-06T12:42:36.515Z,2.00
2018-05-06T12:45:04.057Z,1.83
2018-05-06T12:47:31.511Z,1.90
2018-05-06T12:49:58.989Z,1.73
2018-05-06T12:52:26.486Z,2.27
2018-05-06T12:54:53.929Z,1.57
2018-05-06T12:57:21.423Z,1.70
2018-05-06T12:59:48.910Z,1.70
2018-05-06T13:02:16.417Z,1.70
2018-05-06T13:04:43.868Z,2.03
2018-05-06T13:07:11.323Z,1.67
2018-05-06T13:09:38.794Z,1.73
2018-05-06T13:12:06.250Z,1.60
2018-05-06T13:14:33.719Z,2.10
2018-05-06T13:17:01.179Z,1.90
2018-05-06T13:19:29.871Z,1.97
2018-05-06T13:21:58.201Z,1.87
2018-05-06T13:24:27.474Z,1.60
2018-05-06T13:26:55.058Z,1.70
2018-05-06T13:31:55.862Z,1.73
2018-05-06T13:34:23.340Z,2.00
2018-05-06T13:36:52.040Z,2.33
2018-05-06T13:39:20.328Z,1.67
2018-05-06T13:41:47.821Z,1.90
2018-05-06T13:44:16.051Z,2.20
2018-05-06T13:46:44.245Z,1.83
2018-05-06T13:49:12.500Z,1.60
2018-05-06T13:51:40.105Z,1.80
2018-05-06T13:54:07.631Z,2.00
2018-05-06T13:56:35.892Z,1.53
2018-05-06T13:59:03.335Z,1.63
2018-05-06T14:01:30.854Z,2.27
2018-05-06T14:03:58.341Z,2.00
2018-05-06T14:06:26.094Z,1.60
2018-05-06T14:08:54.260Z,1.90
2018-05-06T14:11:21.735Z,1.60
2018-05-06T14:13:53.096Z,1.77
2018-05-06T14:16:20.574Z,1.70
2018-05-06T14:18:48.854Z,1.73
2018-05-06T14:21:16.847Z,1.50
2018-05-06T14:23:45.089Z,1.90
2018-05-06T14:26:12.560Z,1.57
2018-05-06T14:28:40.141Z,1.60
2018-05-06T14:31:08.392Z,1.63
2018-05-06T14:33:35.929Z,2.07
2018-05-06T14:36:03.465Z,1.53
2018-05-06T14:38:31.011Z,1.60
2018-05-06T14:41:00.332Z,2.03
2018-05-06T14:43:27.915Z,1.97
2018-05-06T14:45:55.403Z,1.80
2018-05-06T14:48:22.905Z,1.93
2018-05-06T14:50:50.890Z,1.63
2018-05-06T14:53:19.294Z,1.60
2018-05-06T14:55:46.824Z,1.57
2018-05-06T14:58:14.276Z,1.70
2018-05-06T15:00:42.491Z,1.47
2018-05-06T15:03:14.527Z,1.40
2018-05-06T15:05:42.028Z,1.70
2018-05-06T15:08:09.560Z,1.60
2018-05-06T15:10:37.110Z,1.60
2018-05-06T15:13:04.554Z,1.47
2018-05-06T15:15:33.523Z,1.40
2018-05-06T15:18:01.123Z,1.43
2018-05-06T15:20:29.054Z,1.43
2018-05-06T15:22:56.511Z,1.67
2018-05-06T15:25:23.999Z,1.37
2018-05-06T15:27:51.527Z,1.30
2018-05-06T15:30:19.818Z,1.37
2018-05-06T15:32:47.269Z,1.30
2018-05-06T15:35:14.816Z,1.40
2018-05-06T15:37:42.537Z,1.33
2018-05-06T15:40:10.815Z,1.40
2018-05-06T15:42:38.743Z,1.50
2018-05-06T15:45:06.247Z,1.73
2018-05-06T15:47:34.430Z,1.87
2018-05-06T15:50:01.919Z,1.50
2018-05-06T15:52:29.448Z,1.50
2018-05-06T15:54:56.965Z,1.50
2018-05-06T15:57:25.214Z,1.53
2018-05-06T15:59:52.672Z,1.43
2018-05-06T16:05:28.884Z,1.90
2018-05-06T16:07:56.431Z,1.60
2018-05-06T16:10:23.881Z,2.00
2018-05-06T16:12:51.364Z,1.60
2018-05-06T16:15:18.827Z,2.03
2018-05-06T16:17:46.330Z,2.07
2018-05-06T16:20:14.602Z,1.77
2018-05-06T16:22:42.143Z,2.10
2018-05-06T16:25:09.592Z,2.30
2018-05-06T16:27:37.062Z,1.57
2018-05-06T16:30:04.560Z,1.97
2018-05-06T16:32:32.010Z,2.37
2018-05-06T16:34:59.563Z,2.70
2018-05-06T16:37:27.780Z,2.23
2018-05-06T16:39:55.281Z,2.20
2018-05-06T16:42:22.775Z,2.30
2018-05-06T16:44:50.999Z,2.63
2018-05-06T16:47:18.469Z,2.60
2018-05-06T16:49:46.031Z,2.17
2018-05-06T16:52:14.283Z,2.33
2018-05-06T16:54:41.742Z,1.73
2018-05-06T16:57:09.242Z,2.27
2018-05-06T16:59:37.566Z,1.87
2018-05-06T17:02:05.011Z,2.20
2018-05-06T17:04:32.682Z,2.43
2018-05-06T17:07:00.150Z,2.40
2018-05-06T17:09:27.602Z,2.00
2018-05-06T17:11:55.079Z,2.20
2018-05-06T17:14:23.361Z,2.03
2018-05-06T17:16:50.790Z,2.60
2018-05-06T17:19:18.265Z,2.37
2018-05-06T17:21:45.741Z,1.87
2018-05-06T17:24:13.264Z,2.20
2018-05-06T17:26:40.716Z,1.87
2018-05-06T17:29:08.343Z,2.00
2018-05-06T17:31:35.811Z,2.60
2018-05-06T17:34:03.274Z,1.80
2018-05-06T17:36:30.750Z,2.33
2018-05-06T17:38:58.211Z,2.30
2018-05-06T17:41:25.761Z,2.33
2018-05-06T17:43:53.200Z,1.73
2018-05-06T17:46:20.671Z,2.50
2018-05-06T17:48:48.126Z,2.13
2018-05-06T17:51:16.097Z,2.00
2018-05-06T17:53:43.965Z,2.17
2018-05-06T17:56:11.441Z,2.43
2018-05-06T17:58:39.689Z,2.43
2018-05-06T18:01:07.177Z,2.23
2018-05-06T18:03:34.617Z,2.37
2018-05-06T18:06:02.203Z,1.93
2018-05-06T18:08:29.683Z,2.33
2018-05-06T18:10:57.231Z,2.30
2018-05-06T18:13:25.458Z,2.50
2018-05-06T18:15:52.933Z,2.43
2018-05-06T18:18:20.398Z,2.00
2018-05-06T18:20:47.853Z,2.43
2018-05-06T18:23:15.391Z,2.37
2018-05-06T18:25:42.844Z,1.77
2018-05-06T18:28:10.310Z,2.60
2018-05-06T18:30:37.776Z,2.73
2018-05-06T18:33:05.270Z,2.10
2018-05-06T18:35:32.747Z,2.27
2018-05-06T18:38:00.234Z,2.10
2018-05-06T18:40:27.717Z,1.70
2018-05-06T18:42:55.184Z,1.73
2018-05-06T18:45:22.638Z,1.83
2018-05-06T18:47:50.089Z,2.23
2018-05-06T18:50:17.603Z,2.13
2018-05-06T18:52:45.056Z,2.20
2018-05-06T18:55:12.545Z,2.00
2018-05-06T18:57:39.997Z,2.90
2018-05-06T19:00:07.495Z,2.23
2018-05-06T19:02:34.989Z,2.37
2018-05-06T19:05:02.488Z,2.00
2018-05-06T19:07:30.724Z,2.10
2018-05-06T19:09:58.239Z,2.50
2018-05-06T19:12:25.756Z,1.97
2018-05-06T19:14:53.237Z,1.67
2018-05-06T19:17:20.695Z,1.73
2018-05-06T19:19:48.203Z,2.17
2018-05-06T19:22:15.669Z,2.10
2018-05-06T19:24:43.180Z,1.97
2018-05-06T19:27:10.642Z,2.13
2018-05-06T19:29:38.148Z,2.00
2018-05-06T19:32:05.603Z,1.70
2018-05-06T19:34:33.158Z,1.57
2018-05-06T19:37:00.611Z,1.80
2018-05-06T19:39:28.068Z,1.93
2018-05-06T19:41:56.362Z,1.57
2018-05-06T19:44:24.589Z,1.90
2018-05-06T19:46:52.059Z,2.20
2018-05-06T19:49:19.519Z,1.87
2018-05-06T19:51:47.071Z,1.50
2018-05-06T19:54:15.280Z,2.13
2018-05-06T19:56:42.753Z,1.90
2018-05-06T19:59:10.991Z,2.10
2018-05-06T20:01:38.476Z,2.10
2018-05-06T20:04:07.435Z,2.10
2018-05-06T20:06:34.926Z,2.27
2018-05-06T20:09:02.384Z,1.70
2018-05-06T20:11:29.880Z,2.00
2018-05-06T20:13:57.377Z,2.20
2018-05-06T20:16:24.855Z,2.40
2018-05-06T20:18:52.391Z,2.00
2018-05-06T20:21:19.881Z,2.23
2018-05-06T20:23:47.389Z,2.30
2018-05-06T20:26:14.867Z,2.73
2018-05-06T20:28:42.346Z,2.50
2018-05-06T20:31:09.810Z,2.20
2018-05-06T20:33:37.339Z,2.37
2018-05-06T20:36:05.544Z,2.00
2018-05-06T20:38:33.883Z,2.40
2018-05-06T20:41:01.377Z,1.97
2018-05-06T20:43:28.846Z,3.00
2018-05-06T20:45:57.169Z,2.00
2018-05-06T20:48:26.171Z,2.13
2018-05-06T20:50:58.981Z,2.33
2018-05-06T20:53:26.479Z,2.00
2018-05-06T20:55:53.991Z,1.90
2018-05-06T20:58:21.452Z,1.80
2018-05-06T21:00:48.912Z,2.27
2018-05-06T21:03:16.473Z,2.30
2018-05-06T21:05:44.009Z,1.90
2018-05-06T21:08:12.045Z,1.93
2018-05-06T21:10:43.607Z,2.47
2018-05-06T21:13:11.079Z,2.47
2018-05-06T21:15:38.668Z,2.20
2018-05-06T21:18:06.127Z,1.90
2018-05-06T21:20:33.598Z,1.80
2018-05-06T21:23:01.050Z,2.10
2018-05-06T21:25:33.568Z,2.30
2018-05-06T21:28:01.089Z,2.63
2018-05-06T21:30:28.638Z,2.53
2018-05-06T21:32:56.093Z,2.30
2018-05-06T21:35:24.024Z,2.23
2018-05-06T21:37:51.507Z,2.37
2018-05-06T21:40:18.989Z,1.90
2018-05-06T21:42:46.454Z,3.17
2018-05-06T21:45:13.919Z,2.07
2018-05-06T21:47:41.383Z,2.43
2018-05-06T21:50:08.877Z,2.70
2018-05-06T21:52:36.521Z,2.63
2018-05-06T21:55:03.997Z,2.47
2018-05-06T21:57:35.647Z,2.23
2018-05-06T22:00:03.136Z,1.70
2018-05-06T22:02:43.215Z,2.20
2018-05-06T22:05:10.697Z,2.03
2018-05-06T22:07:38.246Z,2.07
2018-05-06T22:10:05.729Z,2.50
2018-05-06T22:12:33.643Z,2.10
2018-05-06T22:15:01.167Z,2.47
2018-05-06T22:17:28.741Z,1.90
2018-05-06T22:20:28.946Z,2.27
2018-05-06T22:22:56.442Z,1.77
2018-05-06T22:25:24.707Z,1.87
2018-05-06T22:27:54.528Z,1.93
2018-05-06T22:44:11.665Z,1.87
2018-05-06T22:51:30.770Z,2.50
2018-05-06T22:53:59.060Z,2.10
2018-05-06T22:56:29.312Z,1.93
2018-05-06T22:58:56.817Z,2.23
2018-05-06T23:01:24.377Z,1.93
2018-05-06T23:06:56.296Z,1.97
2018-05-06T23:09:23.786Z,2.43
2018-05-06T23:11:51.264Z,2.40
2018-05-06T23:14:18.763Z,2.30
2018-05-06T23:16:46.222Z,2.40
2018-05-06T23:19:13.703Z,2.00
2018-05-06T23:21:41.306Z,2.30
2018-05-06T23:24:09.711Z,1.77
2018-05-06T23:26:37.919Z,2.43
2018-05-06T23:29:05.411Z,2.33
2018-05-06T23:31:32.896Z,2.60
2018-05-06T23:34:01.074Z,2.10
2018-05-06T23:36:28.707Z,2.17
2018-05-06T23:38:56.964Z,2.27
2018-05-06T23:41:24.448Z,2.00
2018-05-06T23:43:51.963Z,2.60
2018-05-06T23:46:19.449Z,2.50
2018-05-06T23:48:46.894Z,2.20
2018-05-06T23:51:14.360Z,2.43
2018-05-06T23:53:41.830Z,2.43
2018-05-06T23:56:09.407Z,2.27
2018-05-06T23:58:41.461Z,2.50
